Time;durP1;ratioP1;P1;durP2;ratioP2;P2;SDS_P1;SDS_P2;PMS_P1;PMS_P2;Temp;Humidity;BMP_temperature;BMP_pressure;BME280_temperature;BME280_humidity;BME280_pressure;Samples;Min_cycle;Max_cycle;Signal;HPM_P1;HPM_P2
2023/04/07 00:02:20;;;;;;;8.37;7.37;;;7.40;24.90;;;;;;10279023;28;20561;-73
2023/04/07 00:07:24;;;;;;;8.97;6.97;;;7.40;24.70;;;;;;10283245;28;20232;-73
2023/04/07 00:12:28;;;;;;;7.07;6.03;;;7.30;24.70;;;;;;10284258;28;20254;-73
2023/04/07 00:17:31;;;;;;;6.07;5.57;;;7.30;24.90;;;;;;10279667;28;20229;-74
2023/04/07 00:22:35;;;;;;;6.03;5.43;;;7.20;24.90;;;;;;10276826;28;20239;-74
2023/04/07 00:27:39;;;;;;;6.27;5.57;;;7.30;25.00;;;;;;10277839;28;20242;-74
2023/04/07 00:32:42;;;;;;;6.33;5.73;;;7.30;25.20;;;;;;10275129;28;20250;-74
2023/04/07 00:37:47;;;;;;;6.17;5.67;;;7.30;25.00;;;;;;10273544;28;20230;-73
2023/04/07 00:42:52;;;;;;;7.80;7.00;;;7.30;25.00;;;;;;10280821;28;20228;-73
2023/04/07 00:47:57;;;;;;;7.60;6.90;;;7.40;25.30;;;;;;10274924;28;20228;-74
2023/04/07 00:53:01;;;;;;;7.77;6.97;;;7.30;25.10;;;;;;10277054;28;20707;-74
2023/04/07 00:58:05;;;;;;;9.33;7.90;;;7.20;25.00;;;;;;10280007;28;20235;-74
2023/04/07 01:03:13;;;;;;;8.23;6.97;;;7.20;25.30;;;;;;10279990;28;23562;-74
2023/04/07 01:08:23;;;;;;;6.80;6.20;;;7.10;25.30;;;;;;10281282;28;20236;-74
2023/04/07 01:13:31;;;;;;;6.40;5.57;;;7.10;25.60;;;;;;10273959;28;20228;-74
2023/04/07 01:18:36;;;;;;;7.90;7.03;;;7.10;25.50;;;;;;10279658;28;20602;-74
2023/04/07 01:23:52;;;;;;;8.40;7.60;;;7.10;25.40;;;;;;10277344;28;20723;-74
2023/04/07 01:29:21;;;;;;;7.67;6.90;;;7.00;25.80;;;;;;10276173;28;20235;-74
2023/04/07 01:34:29;;;;;;;7.27;6.63;;;6.90;25.70;;;;;;10275434;28;20225;-74
2023/04/07 01:39:33;;;;;;;7.83;7.03;;;6.80;25.40;;;;;;10274800;28;20227;-75
2023/04/07 01:44:37;;;;;;;9.17;8.27;;;6.60;25.30;;;;;;10264898;28;21231;-74
2023/04/07 01:49:43;;;;;;;8.37;7.57;;;6.50;25.50;;;;;;10251530;28;20236;-74
2023/04/07 01:54:47;;;;;;;8.37;7.50;;;6.50;25.80;;;;;;10275596;28;20246;-75
2023/04/07 01:59:50;;;;;;;8.10;6.67;;;6.40;25.80;;;;;;10272427;28;20239;-75
2023/04/07 02:04:56;;;;;;;7.73;6.93;;;6.30;25.60;;;;;;10282584;28;20227;-75
2023/04/07 02:10:03;;;;;;;8.33;7.53;;;6.20;26.30;;;;;;10290278;28;20226;-75
2023/04/07 02:15:10;;;;;;;8.23;7.43;;;6.10;26.60;;;;;;10285755;28;20222;-75
2023/04/07 02:20:15;;;;;;;7.67;6.87;;;6.00;26.50;;;;;;10283529;28;20696;-75
2023/04/07 02:25:23;;;;;;;8.80;7.90;;;6.00;26.50;;;;;;10287977;28;20621;-75
2023/04/07 02:30:27;;;;;;;9.60;8.60;;;6.00;26.50;;;;;;10288676;28;20232;-76
2023/04/07 02:35:31;;;;;;;7.80;7.07;;;6.00;26.60;;;;;;10280736;28;20281;-75
2023/04/07 02:40:35;;;;;;;7.47;6.60;;;6.10;26.60;;;;;;10288690;28;20235;-75
2023/04/07 02:45:38;;;;;;;8.73;7.93;;;6.10;26.60;;;;;;10281154;28;20266;-76
2023/04/07 02:50:45;;;;;;;9.50;8.50;;;6.10;26.60;;;;;;10277182;28;20232;-76
2023/04/07 02:55:48;;;;;;;7.50;6.80;;;6.20;26.70;;;;;;10282917;28;20226;-76
2023/04/07 03:00:51;;;;;;;10.10;8.77;;;6.30;26.70;;;;;;10276585;28;21001;-76
2023/04/07 03:05:56;;;;;;;9.27;8.47;;;6.30;26.70;;;;;;10284785;28;20228;-76
2023/04/07 03:10:59;;;;;;;7.67;6.97;;;6.30;26.70;;;;;;10282929;28;20649;-76
2023/04/07 03:16:03;;;;;;;8.70;7.90;;;6.30;26.70;;;;;;10281891;28;20224;-75
2023/04/07 03:21:08;;;;;;;9.37;8.30;;;6.30;26.70;;;;;;10280019;28;20709;-75
2023/04/07 03:26:11;;;;;;;10.57;9.43;;;6.30;26.70;;;;;;10281863;28;20232;-76
2023/04/07 03:31:14;;;;;;;9.57;8.67;;;6.30;26.70;;;;;;10281870;28;20235;-76
2023/04/07 03:36:19;;;;;;;7.43;6.70;;;6.20;26.70;;;;;;10285944;28;20263;-76
2023/04/07 03:41:22;;;;;;;7.40;6.67;;;6.20;26.70;;;;;;10282910;28;20633;-76
2023/04/07 03:46:26;;;;;;;8.37;7.57;;;6.10;26.60;;;;;;10283511;28;20595;-76
2023/04/07 03:51:31;;;;;;;8.90;8.00;;;6.20;26.90;;;;;;10271323;28;20282;-76
2023/04/07 03:56:36;;;;;;;9.00;8.10;;;6.20;27.20;;;;;;10284272;28;20235;-76
2023/04/07 04:01:39;;;;;;;7.53;6.83;;;6.30;26.80;;;;;;10275370;28;20236;-76
2023/04/07 04:06:44;;;;;;;7.40;6.70;;;6.20;26.70;;;;;;10283787;28;20722;-76
2023/04/07 04:11:47;;;;;;;9.50;8.60;;;6.20;27.20;;;;;;10249356;28;20236;-76
2023/04/07 04:16:50;;;;;;;9.37;8.47;;;6.30;27.20;;;;;;10230881;28;20726;-76
2023/04/07 04:21:54;;;;;;;9.47;8.57;;;6.30;27.00;;;;;;10227818;28;20239;-76
2023/04/07 04:26:58;;;;;;;7.43;6.73;;;6.30;27.30;;;;;;10224968;28;20228;-76
2023/04/07 04:32:01;;;;;;;9.03;8.13;;;6.20;27.00;;;;;;10217227;28;20243;-75
2023/04/07 04:37:05;;;;;;;8.60;7.77;;;6.20;27.20;;;;;;10223402;28;20595;-76
2023/04/07 04:42:09;;;;;;;10.27;9.27;;;6.20;27.60;;;;;;10231516;28;20228;-76
2023/04/07 04:47:12;;;;;;;7.30;6.60;;;6.20;27.30;;;;;;10224986;28;20756;-76
2023/04/07 04:52:16;;;;;;;9.53;8.63;;;6.30;27.40;;;;;;10228672;28;20241;-76
2023/04/07 04:57:19;;;;;;;13.27;9.70;;;6.30;27.70;;;;;;10229706;28;20650;-76
2023/04/07 05:02:22;;;;;;;8.63;7.83;;;6.30;27.40;;;;;;10223668;28;20236;-76
2023/04/07 05:07:27;;;;;;;8.27;7.47;;;6.30;27.50;;;;;;10220884;28;20720;-75
2023/04/07 05:12:30;;;;;;;10.17;9.20;;;6.30;27.80;;;;;;10250241;28;21198;-76
2023/04/07 05:17:33;;;;;;;9.67;8.67;;;6.30;27.80;;;;;;10278234;28;20231;-75
2023/04/07 05:22:38;;;;;;;9.83;8.83;;;6.40;27.90;;;;;;10277334;28;20243;-76
2023/04/07 05:27:41;;;;;;;9.73;8.83;;;6.40;28.20;;;;;;10273338;28;20243;-76
2023/04/07 05:32:47;;;;;;;9.80;8.80;;;6.50;28.00;;;;;;10280641;28;20727;-75
2023/04/07 05:37:52;;;;;;;10.37;9.37;;;6.50;28.00;;;;;;10272279;28;20243;-75
2023/04/07 05:42:55;;;;;;;8.53;7.73;;;6.60;28.30;;;;;;10270824;28;20235;-75
2023/04/07 05:47:58;;;;;;;9.80;8.80;;;6.60;28.10;;;;;;10285253;28;20231;-75
2023/04/07 05:53:03;;;;;;;9.80;8.83;;;6.60;28.10;;;;;;10275391;28;20290;-74
2023/04/07 05:58:06;;;;;;;7.97;7.27;;;6.70;28.40;;;;;;10270910;28;20223;-74
2023/04/07 06:03:09;;;;;;;8.03;7.33;;;6.70;28.20;;;;;;10268114;28;20249;-74
2023/04/07 06:08:14;;;;;;;9.63;8.13;;;6.80;28.30;;;;;;10274135;28;20553;-74
2023/04/07 06:13:17;;;;;;;7.87;7.17;;;6.80;28.50;;;;;;10272294;28;20231;-74
2023/04/07 06:18:20;;;;;;;9.00;8.13;;;6.90;28.40;;;;;;10278128;28;20242;-73
2023/04/07 06:23:24;;;;;;;9.37;8.33;;;7.00;28.60;;;;;;10279000;28;20235;-73
2023/04/07 06:28:27;;;;;;;9.10;8.30;;;7.10;28.80;;;;;;10271350;28;20584;-73
2023/04/07 06:33:31;;;;;;;9.13;8.33;;;7.10;28.70;;;;;;10273695;28;20231;-73
2023/04/07 06:38:35;;;;;;;10.03;9.07;;;7.20;28.80;;;;;;10277249;28;20231;-73
2023/04/07 06:43:40;;;;;;;8.47;7.67;;;7.30;29.00;;;;;;10273251;28;20228;-73
2023/04/07 06:48:44;;;;;;;10.00;9.00;;;7.40;28.80;;;;;;10277432;28;20239;-73
2023/04/07 06:53:48;;;;;;;9.67;8.77;;;7.50;28.90;;;;;;10284631;28;20235;-73
2023/04/07 06:58:52;;;;;;;10.70;9.67;;;7.50;29.30;;;;;;10279980;28;20238;-73
2023/04/07 07:03:55;;;;;;;10.97;9.87;;;7.60;29.00;;;;;;10283040;28;20238;-73
2023/04/07 07:09:01;;;;;;;8.87;8.07;;;7.70;29.10;;;;;;10281378;28;20706;-72
2023/04/07 07:14:05;;;;;;;9.27;8.40;;;7.80;29.30;;;;;;10279607;28;20311;-72
2023/04/07 07:19:08;;;;;;;8.30;7.50;;;7.90;29.30;;;;;;10281520;28;20223;-72
2023/04/07 07:24:12;;;;;;;8.17;7.30;;;8.00;29.30;;;;;;10282400;28;20243;-72
2023/04/07 07:29:16;;;;;;;7.53;6.87;;;8.10;29.70;;;;;;10286222;28;20248;-72
2023/04/07 07:34:19;;;;;;;6.60;6.00;;;8.20;29.60;;;;;;10283926;28;20270;-72
2023/04/07 07:39:23;;;;;;;6.40;5.80;;;8.40;30.00;;;;;;10286222;28;20236;-71
2023/04/07 07:44:26;;;;;;;7.00;6.40;;;8.60;30.40;;;;;;10278061;28;20239;-71
2023/04/07 07:49:29;;;;;;;6.10;5.60;;;8.70;30.30;;;;;;10284410;28;20619;-71
2023/04/07 07:54:34;;;;;;;6.03;5.50;;;9.00;30.50;;;;;;10285178;28;20228;-71
2023/04/07 07:59:39;;;;;;;6.33;5.73;;;9.20;31.10;;;;;;10279881;28;20247;-71
2023/04/07 08:04:42;;;;;;;6.27;5.77;;;9.40;30.70;;;;;;10275216;28;20232;-71
2023/04/07 08:09:47;;;;;;;6.50;5.57;;;9.60;30.60;;;;;;10276043;28;20325;-71
2023/04/07 08:14:50;;;;;;;6.17;5.67;;;9.80;30.90;;;;;;10274062;28;20639;-71
2023/04/07 08:19:53;;;;;;;6.30;5.70;;;10.00;29.70;;;;;;10281098;28;20593;-71
2023/04/07 08:24:57;;;;;;;5.90;5.40;;;10.20;29.70;;;;;;10285860;28;20224;-71
2023/04/07 08:30:02;;;;;;;5.83;5.33;;;10.40;30.00;;;;;;10280311;28;20619;-71
2023/04/07 08:35:06;;;;;;;6.57;5.97;;;10.50;29.70;;;;;;10276740;28;20230;-71
2023/04/07 08:40:12;;;;;;;6.07;5.57;;;10.70;29.60;;;;;;10277186;28;20235;-71
2023/04/07 08:45:17;;;;;;;6.20;5.60;;;10.90;29.80;;;;;;10277271;28;20247;-71
2023/04/07 08:50:21;;;;;;;7.23;5.90;;;11.00;29.70;;;;;;10279426;28;20234;-71
2023/04/07 08:55:26;;;;;;;5.93;5.33;;;11.20;29.60;;;;;;10278705;28;20227;-71
2023/04/07 09:00:30;;;;;;;5.87;5.37;;;11.40;29.80;;;;;;10276109;28;21075;-71
2023/04/07 09:05:34;;;;;;;6.40;5.80;;;11.60;29.50;;;;;;10269476;28;20315;-71
2023/04/07 09:10:39;;;;;;;6.40;5.90;;;11.70;29.50;;;;;;10267377;28;20235;-71
2023/04/07 09:15:42;;;;;;;5.80;5.30;;;11.90;29.60;;;;;;10273041;28;20741;-71
2023/04/07 09:20:58;;;;;;;6.53;5.93;;;12.00;29.70;;;;;;10274670;28;20239;-71
2023/04/07 09:26:20;;;;;;;5.73;5.27;;;12.20;29.80;;;;;;10275044;28;20266;-71
2023/04/07 09:31:43;;;;;;;6.73;6.13;;;12.40;30.00;;;;;;10270364;28;20310;-71
2023/04/07 09:36:46;;;;;;;6.13;5.53;;;12.50;29.60;;;;;;10281819;28;20247;-71
2023/04/07 09:41:51;;;;;;;6.97;5.73;;;12.60;29.30;;;;;;10273054;28;20658;-71
2023/04/07 09:46:56;;;;;;;6.43;5.90;;;12.80;29.30;;;;;;10277285;28;20254;-71
2023/04/07 09:52:03;;;;;;;6.20;5.70;;;12.90;29.30;;;;;;10277008;28;20583;-71
2023/04/07 09:57:09;;;;;;;5.80;5.30;;;13.00;29.10;;;;;;10280129;28;20239;-71
2023/04/07 10:02:12;;;;;;;6.83;6.23;;;13.20;29.10;;;;;;10277574;28;20727;-71
2023/04/07 10:07:16;;;;;;;6.10;5.60;;;13.30;28.80;;;;;;10275321;28;20231;-71
2023/04/07 10:12:21;;;;;;;6.60;6.10;;;13.40;28.70;;;;;;10277701;28;20231;-71
2023/04/07 10:17:24;;;;;;;5.93;5.43;;;13.50;28.60;;;;;;10273370;28;20231;-71
2023/04/07 10:22:29;;;;;;;6.60;6.00;;;13.60;28.60;;;;;;10273493;28;20235;-71
2023/04/07 10:27:39;;;;;;;6.33;5.83;;;13.70;28.70;;;;;;10282200;28;20326;-71
2023/04/07 10:32:47;;;;;;;6.27;5.77;;;13.80;28.40;;;;;;10286874;28;20238;-71
2023/04/07 10:38:15;;;;;;;6.17;5.60;;;13.90;28.50;;;;;;10287003;28;20294;-70
2023/04/07 10:43:38;;;;;;;6.30;5.73;;;14.00;28.40;;;;;;10279940;28;20235;-70
2023/04/07 10:48:41;;;;;;;5.73;5.23;;;14.00;28.20;;;;;;10284238;28;20228;-71
2023/04/07 10:54:19;;;;;;;5.77;5.27;;;14.10;28.10;;;;;;10278234;28;20648;-70
2023/04/07 10:59:26;;;;;;;5.63;5.13;;;14.10;28.00;;;;;;10283600;28;20673;-71
2023/04/07 11:04:37;;;;;;;6.27;5.70;;;14.20;28.00;;;;;;10284430;28;20234;-71
2023/04/07 11:09:41;;;;;;;5.70;5.23;;;14.20;27.90;;;;;;10278850;28;20235;-71
2023/04/07 11:14:45;;;;;;;5.97;5.47;;;14.30;28.10;;;;;;10281916;28;20608;-70
2023/04/07 11:19:54;;;;;;;5.33;4.93;;;14.30;27.90;;;;;;10276598;28;20688;-70
2023/04/07 11:25:01;;;;;;;5.43;4.93;;;14.30;27.70;;;;;;10276408;28;20775;-71
2023/04/07 11:30:11;;;;;;;5.30;4.90;;;14.40;27.70;;;;;;10282566;28;20232;-71
2023/04/07 11:35:15;;;;;;;5.70;5.30;;;14.50;27.60;;;;;;10277539;28;20227;-69
2023/04/07 11:40:33;;;;;;;5.47;4.97;;;14.60;27.70;;;;;;10278021;28;20232;-71
2023/04/07 11:45:37;;;;;;;5.80;5.30;;;14.60;28.10;;;;;;10282073;28;20255;-69
2023/04/07 11:50:42;;;;;;;5.93;5.37;;;14.70;27.60;;;;;;10283976;28;20620;-71
2023/04/07 11:55:45;;;;;;;5.77;5.27;;;14.70;27.60;;;;;;10280765;28;20233;-71
2023/04/07 12:00:57;;;;;;;5.00;4.50;;;14.80;27.50;;;;;;10276556;28;20242;-71
2023/04/07 12:06:00;;;;;;;4.70;4.30;;;14.80;26.90;;;;;;10280603;28;20581;-70
2023/04/07 12:11:04;;;;;;;5.07;3.70;;;14.80;27.30;;;;;;10275723;28;20227;-71
2023/04/07 12:16:09;;;;;;;4.27;3.97;;;14.80;27.20;;;;;;10281463;28;20599;-71
2023/04/07 12:21:12;;;;;;;4.40;4.00;;;14.90;27.20;;;;;;10281171;28;20246;-72
2023/04/07 12:26:15;;;;;;;4.43;4.10;;;15.00;27.40;;;;;;10273452;28;20290;-69
2023/04/07 12:31:20;;;;;;;4.47;4.17;;;15.20;27.40;;;;;;10276265;28;20236;-71
2023/04/07 12:36:23;;;;;;;4.27;3.97;;;15.20;27.00;;;;;;10274991;28;20266;-69
2023/04/07 12:41:26;;;;;;;4.40;4.10;;;15.30;27.10;;;;;;10277604;28;20232;-69
2023/04/07 12:46:31;;;;;;;4.50;4.20;;;15.30;27.00;;;;;;10280081;28;20231;-69
2023/04/07 12:51:34;;;;;;;4.20;3.90;;;15.30;26.90;;;;;;10271083;28;20220;-69
2023/04/07 12:56:39;;;;;;;3.97;3.67;;;15.30;27.00;;;;;;10278435;28;20228;-69
2023/04/07 13:01:43;;;;;;;4.33;3.93;;;15.30;27.20;;;;;;10274270;28;20263;-69
2023/04/07 13:06:46;;;;;;;4.67;4.27;;;15.30;27.30;;;;;;10277096;28;20243;-69
2023/04/07 13:11:50;;;;;;;4.13;3.83;;;15.30;27.20;;;;;;10280391;28;20747;-69
2023/04/07 13:16:54;;;;;;;4.50;4.10;;;15.30;27.30;;;;;;10275252;28;20450;-69
2023/04/07 13:21:58;;;;;;;4.90;4.20;;;15.30;27.10;;;;;;10268235;28;20216;-69
2023/04/07 13:27:01;;;;;;;4.40;4.10;;;15.30;27.10;;;;;;10276965;28;20234;-69
2023/04/07 13:32:07;;;;;;;4.00;3.70;;;15.30;27.00;;;;;;10275558;28;20667;-69
2023/04/07 13:37:10;;;;;;;5.80;3.93;;;15.30;26.90;;;;;;10276734;28;20220;-71
2023/04/07 13:42:16;;;;;;;4.50;4.10;;;15.30;26.90;;;;;;10270944;28;20242;-69
2023/04/07 13:47:21;;;;;;;4.23;3.93;;;15.30;26.90;;;;;;10275626;28;20696;-69
2023/04/07 13:52:25;;;;;;;4.07;3.60;;;15.30;27.00;;;;;;10269915;28;20231;-69
2023/04/07 13:57:28;;;;;;;4.20;3.80;;;15.30;27.10;;;;;;10278303;28;20234;-69
2023/04/07 14:02:33;;;;;;;4.13;3.83;;;15.40;27.70;;;;;;10288379;28;20239;-69
2023/04/07 14:07:36;;;;;;;3.67;3.37;;;15.50;26.90;;;;;;10288665;28;20707;-71
2023/04/07 14:12:40;;;;;;;4.13;3.83;;;15.50;26.90;;;;;;10281289;28;20235;-69
2023/04/07 14:17:44;;;;;;;4.13;3.83;;;15.60;26.80;;;;;;10278985;28;20227;-70
2023/04/07 14:22:47;;;;;;;3.90;3.60;;;15.60;26.70;;;;;;10282992;28;20238;-70
2023/04/07 14:27:51;;;;;;;4.43;4.13;;;15.60;26.70;;;;;;10288656;28;20230;-70
2023/04/07 14:32:56;;;;;;;4.00;3.70;;;15.60;26.60;;;;;;10286480;28;20778;-70
2023/04/07 14:37:59;;;;;;;4.37;4.00;;;15.60;26.40;;;;;;10276421;28;20318;-72
2023/04/07 14:43:03;;;;;;;4.30;4.00;;;15.60;26.40;;;;;;10277194;28;20236;-72
2023/04/07 14:48:12;;;;;;;4.03;3.73;;;15.60;26.30;;;;;;10281715;28;20674;-70
2023/04/07 14:53:16;;;;;;;5.30;4.90;;;15.60;26.40;;;;;;10287831;28;20246;-70
2023/04/07 14:58:19;;;;;;;4.33;4.03;;;15.60;26.40;;;;;;10282786;28;20526;-70
2023/04/07 15:03:23;;;;;;;5.93;5.43;;;15.50;26.30;;;;;;10279122;28;20259;-70
2023/04/07 15:08:27;;;;;;;6.00;5.50;;;15.40;26.30;;;;;;10282322;28;20314;-70
2023/04/07 15:13:30;;;;;;;5.20;4.80;;;15.40;26.40;;;;;;10278975;28;20232;-72
2023/04/07 15:18:34;;;;;;;5.80;5.30;;;15.40;26.40;;;;;;10279741;28;20228;-70
2023/04/07 15:23:40;;;;;;;5.03;4.63;;;15.40;26.40;;;;;;10282258;28;20236;-70
2023/04/07 15:28:43;;;;;;;5.10;4.60;;;15.40;26.40;;;;;;10281935;28;20224;-72
2023/04/07 15:33:48;;;;;;;4.30;4.00;;;15.30;26.40;;;;;;10274313;28;20236;-70
2023/04/07 15:38:51;;;;;;;3.87;3.57;;;15.30;26.30;;;;;;10273588;28;20788;-72
2023/04/07 15:43:55;;;;;;;3.70;3.40;;;15.20;26.30;;;;;;10277487;28;20231;-72
2023/04/07 15:49:01;;;;;;;4.90;4.47;;;15.20;26.40;;;;;;10283606;28;20612;-72
2023/04/07 15:54:05;;;;;;;3.80;3.50;;;15.20;26.40;;;;;;10278174;28;20228;-71
2023/04/07 15:59:08;;;;;;;4.07;3.77;;;15.20;26.90;;;;;;10288254;28;20597;-70
2023/04/07 16:04:12;;;;;;;4.00;3.70;;;15.30;26.30;;;;;;10274063;28;20240;-70
2023/04/07 16:09:16;;;;;;;3.63;3.33;;;15.30;26.40;;;;;;10277327;28;20623;-70
2023/04/07 16:14:19;;;;;;;3.00;2.80;;;15.30;26.30;;;;;;10280711;28;20243;-70
2023/04/07 16:19:24;;;;;;;3.57;3.37;;;15.30;26.40;;;;;;10280915;28;20224;-70
2023/04/07 16:24:27;;;;;;;3.30;3.00;;;15.30;26.30;;;;;;10276607;28;20235;-70
2023/04/07 16:29:30;;;;;;;3.00;2.80;;;15.30;26.40;;;;;;10267015;28;20230;-70
2023/04/07 16:34:34;;;;;;;2.80;2.60;;;15.30;26.40;;;;;;10272510;28;20220;-70
2023/04/07 16:39:38;;;;;;;2.70;2.50;;;15.30;26.50;;;;;;10277862;28;20227;-70
2023/04/07 16:44:41;;;;;;;3.20;3.00;;;15.30;26.50;;;;;;10276647;28;20636;-70
2023/04/07 16:49:45;;;;;;;2.90;2.70;;;15.30;26.40;;;;;;10275455;28;20234;-70
2023/04/07 16:54:48;;;;;;;2.50;2.30;;;15.30;26.40;;;;;;10273947;28;20705;-70
2023/04/07 16:59:51;;;;;;;2.60;2.40;;;15.30;26.40;;;;;;10275069;28;20716;-71
2023/04/07 17:04:56;;;;;;;2.60;2.40;;;15.20;26.30;;;;;;10279208;28;20716;-71
2023/04/07 17:09:59;;;;;;;3.50;2.70;;;15.20;26.40;;;;;;10268683;28;20609;-70
2023/04/07 17:15:02;;;;;;;2.67;2.47;;;15.10;26.40;;;;;;10274170;28;20227;-70
2023/04/07 17:20:09;;;;;;;2.90;2.70;;;15.10;26.40;;;;;;10278402;28;20230;-70
2023/04/07 17:25:12;;;;;;;2.70;2.50;;;15.00;26.60;;;;;;10280920;28;20638;-70
2023/04/07 17:30:17;;;;;;;2.77;2.57;;;14.80;26.70;;;;;;10274087;28;20734;-70
2023/04/07 17:35:21;;;;;;;2.43;2.33;;;14.70;26.50;;;;;;10278438;28;20235;-70
2023/04/07 17:40:24;;;;;;;3.10;2.90;;;14.60;26.60;;;;;;10271857;28;20239;-70
2023/04/07 17:45:27;;;;;;;2.47;2.37;;;14.50;26.60;;;;;;10276813;28;20716;-71
2023/04/07 17:50:32;;;;;;;2.17;2.00;;;14.50;26.80;;;;;;10271154;28;22666;-70
2023/04/07 17:55:35;;;;;;;2.90;2.70;;;14.40;27.40;;;;;;10276003;28;20597;-70
2023/04/07 18:00:38;;;;;;;4.10;3.10;;;14.40;26.90;;;;;;10279126;28;20242;-70
2023/04/07 18:05:45;;;;;;;4.13;2.80;;;14.30;26.90;;;;;;10269439;28;20231;-70
2023/04/07 18:10:48;;;;;;;4.20;3.90;;;14.20;27.10;;;;;;10275334;28;20239;-70
2023/04/07 18:15:51;;;;;;;3.53;3.30;;;14.20;27.00;;;;;;10276185;28;20238;-71
2023/04/07 18:20:56;;;;;;;3.60;3.30;;;14.10;27.10;;;;;;10273335;28;20220;-70
2023/04/07 18:26:02;;;;;;;3.47;3.17;;;14.00;27.20;;;;;;10278757;28;20246;-70
2023/04/07 18:31:07;;;;;;;3.70;3.40;;;13.90;27.40;;;;;;10275238;28;20232;-70
2023/04/07 18:36:13;;;;;;;4.30;4.00;;;13.90;27.30;;;;;;10269618;28;20255;-70
2023/04/07 18:41:16;;;;;;;3.07;2.87;;;13.80;27.40;;;;;;10272598;28;20227;-70
2023/04/07 18:46:19;;;;;;;7.10;6.50;;;13.80;27.30;;;;;;10269585;28;20239;-70
2023/04/07 18:51:24;;;;;;;9.93;8.97;;;13.70;27.40;;;;;;10276914;28;20235;-70
2023/04/07 18:56:28;;;;;;;8.87;8.07;;;13.70;27.50;;;;;;10280719;28;20605;-70
2023/04/07 19:01:31;;;;;;;7.67;6.97;;;13.60;27.40;;;;;;10283930;28;20231;-70
2023/04/07 19:06:36;;;;;;;15.53;12.07;;;13.60;27.50;;;;;;10282865;28;20246;-70
2023/04/07 19:11:40;;;;;;;13.07;10.37;;;13.50;27.50;;;;;;10285245;28;20701;-70
2023/04/07 19:16:43;;;;;;;32.30;28.27;;;13.40;27.40;;;;;;10281355;28;20219;-70
2023/04/07 19:21:48;;;;;;;50.97;46.27;;;13.40;27.40;;;;;;10281949;28;20242;-70
2023/04/07 19:26:51;;;;;;;35.00;31.87;;;13.20;27.40;;;;;;10280592;28;20235;-70
2023/04/07 19:31:56;;;;;;;17.13;15.50;;;13.00;27.30;;;;;;10281142;28;20242;-70
2023/04/07 19:37:00;;;;;;;11.27;10.27;;;12.90;27.40;;;;;;10276891;28;20227;-70
2023/04/07 19:42:03;;;;;;;8.37;7.57;;;12.70;27.50;;;;;;10275557;28;20235;-70
2023/04/07 19:47:07;;;;;;;11.97;10.73;;;12.60;27.40;;;;;;10276736;28;20224;-70
2023/04/07 19:52:11;;;;;;;10.23;9.27;;;12.60;27.60;;;;;;10263044;28;20237;-70
2023/04/07 19:57:15;;;;;;;9.67;8.40;;;12.50;27.60;;;;;;10273917;28;20359;-70
2023/04/07 20:02:18;;;;;;;8.33;7.37;;;12.40;27.40;;;;;;10269109;28;20231;-70
2023/04/07 20:07:22;;;;;;;6.57;5.93;;;12.20;27.30;;;;;;10273748;28;20237;-70
2023/04/07 20:12:26;;;;;;;5.47;4.97;;;12.00;27.60;;;;;;10279891;28;20235;-70
2023/04/07 20:17:31;;;;;;;6.30;5.70;;;11.80;27.50;;;;;;10271918;28;20231;-70
2023/04/07 20:22:35;;;;;;;6.67;6.07;;;11.70;27.80;;;;;;10276499;28;20240;-70
2023/04/07 20:27:39;;;;;;;5.63;5.10;;;11.60;28.10;;;;;;10281193;28;20238;-70
2023/04/07 20:32:42;;;;;;;7.10;6.50;;;11.50;27.90;;;;;;10280929;28;20648;-70
2023/04/07 20:37:46;;;;;;;7.13;6.47;;;11.40;27.80;;;;;;10277646;28;20239;-70
2023/04/07 20:42:50;;;;;;;11.30;9.63;;;11.30;27.90;;;;;;10274751;28;20234;-70
2023/04/07 20:47:53;;;;;;;10.83;8.30;;;11.20;27.80;;;;;;10271904;28;20251;-70
2023/04/07 20:52:58;;;;;;;8.20;7.30;;;11.00;27.90;;;;;;10273390;28;20787;-70
2023/04/07 20:58:01;;;;;;;17.43;11.87;;;11.00;28.20;;;;;;10280396;28;20228;-70
2023/04/07 21:03:04;;;;;;;12.27;9.87;;;10.90;28.10;;;;;;10276417;28;20994;-70
2023/04/07 21:08:09;;;;;;;30.03;20.00;;;10.80;28.20;;;;;;10270933;28;20279;-70
2023/04/07 21:13:15;;;;;;;13.43;10.87;;;10.80;28.40;;;;;;10273043;28;20239;-70
2023/04/07 21:18:18;;;;;;;10.87;9.73;;;10.70;27.90;;;;;;10277011;28;20596;-70
2023/04/07 21:23:23;;;;;;;9.33;8.33;;;10.50;27.80;;;;;;10279829;28;20239;-70
2023/04/07 21:28:26;;;;;;;8.83;7.93;;;10.20;28.30;;;;;;10278256;28;20227;-70
2023/04/07 21:33:29;;;;;;;8.30;7.50;;;10.10;28.40;;;;;;10285774;28;20242;-70
2023/04/07 21:38:34;;;;;;;7.93;7.13;;;9.90;29.00;;;;;;10272633;28;20304;-71
2023/04/07 21:43:37;;;;;;;6.60;5.97;;;9.80;28.90;;;;;;10272656;28;20243;-72
2023/04/07 21:48:40;;;;;;;7.83;6.90;;;9.70;28.90;;;;;;10269970;28;20235;-72
2023/04/07 21:53:44;;;;;;;6.93;6.33;;;9.60;28.80;;;;;;10280336;28;20941;-72
2023/04/07 21:58:47;;;;;;;6.60;5.60;;;9.50;29.20;;;;;;10276943;28;20231;-72
2023/04/07 22:03:51;;;;;;;6.77;6.13;;;9.40;28.90;;;;;;10263018;28;20712;-69
2023/04/07 22:08:55;;;;;;;5.93;5.43;;;9.30;29.00;;;;;;10275094;28;20227;-71
2023/04/07 22:14:04;;;;;;;5.40;4.90;;;9.20;29.40;;;;;;10273237;28;20234;-71
2023/04/07 22:19:07;;;;;;;5.13;4.63;;;9.20;29.20;;;;;;10275866;28;20228;-72
2023/04/07 22:24:11;;;;;;;4.97;4.47;;;9.20;29.30;;;;;;10284740;28;20247;-70
2023/04/07 22:29:14;;;;;;;5.60;5.10;;;9.10;29.40;;;;;;10284267;28;20235;-71
2023/04/07 22:34:18;;;;;;;5.03;4.63;;;9.10;29.40;;;;;;10278432;28;20320;-72
2023/04/07 22:39:23;;;;;;;5.67;5.17;;;9.10;29.50;;;;;;10280416;28;20242;-72
2023/04/07 22:44:26;;;;;;;5.43;4.93;;;9.00;29.60;;;;;;10281738;28;20642;-72
2023/04/07 22:49:30;;;;;;;6.13;5.63;;;8.90;29.40;;;;;;10288541;28;20224;-72
2023/04/07 22:54:34;;;;;;;5.10;4.70;;;8.90;29.60;;;;;;10279253;28;20243;-72
2023/04/07 22:59:38;;;;;;;6.27;5.77;;;8.80;29.80;;;;;;10275696;28;20277;-72
2023/04/07 23:04:41;;;;;;;5.87;5.37;;;8.80;29.60;;;;;;10280434;28;20227;-72
2023/04/07 23:09:45;;;;;;;5.37;4.87;;;8.70;29.50;;;;;;10278854;28;20227;-72
2023/04/07 23:14:48;;;;;;;5.90;5.40;;;8.50;29.70;;;;;;10285656;28;20280;-72
2023/04/07 23:19:51;;;;;;;5.47;4.97;;;8.40;29.60;;;;;;10279577;28;20227;-72
2023/04/07 23:24:56;;;;;;;5.60;5.20;;;8.20;29.60;;;;;;10279432;28;20700;-72
2023/04/07 23:29:59;;;;;;;5.40;4.90;;;8.10;30.00;;;;;;10285032;28;20236;-72
2023/04/07 23:35:02;;;;;;;5.67;5.10;;;8.10;30.50;;;;;;10278409;28;20227;-72
2023/04/07 23:40:09;;;;;;;5.13;4.73;;;8.10;30.00;;;;;;10273468;28;20614;-72
2023/04/07 23:45:12;;;;;;;5.80;5.20;;;8.00;30.20;;;;;;10289402;28;20235;-72
2023/04/07 23:50:16;;;;;;;4.30;3.93;;;8.00;30.00;;;;;;10274953;28;20242;-71
2023/04/07 23:55:20;;;;;;;5.63;4.93;;;8.00;30.00;;;;;;10280049;28;20234;-72
